Time;durP1;ratioP1;P1;durP2;ratioP2;P2;SDS_P1;SDS_P2;PMS_P1;PMS_P2;Temp;Humidity;BMP_temperature;BMP_pressure;BME280_temperature;BME280_humidity;BME280_pressure;Samples;Min_cycle;Max_cycle;Signal;HPM_P1;HPM_P2
2024/04/19 00:01:30;;;;;;;7.65;3.67;;;;;;;10.85;63.36;101624.72;5052588;28;20472;-62
2024/04/19 00:03:59;;;;;;;9.65;3.90;;;;;;;10.84;63.47;101616.75;5052082;28;20049;-60
2024/04/19 00:06:26;;;;;;;8.68;3.83;;;;;;;11.00;63.55;101616.25;5019086;28;20060;-61
2024/04/19 00:08:52;;;;;;;10.75;3.60;;;;;;;10.85;63.89;101624.72;5052390;28;20130;-61
2024/04/19 00:11:18;;;;;;;6.95;3.20;;;;;;;10.85;64.75;101623.88;5052161;28;20562;-60
2024/04/19 00:13:44;;;;;;;6.47;3.20;;;;;;;10.92;64.56;101614.16;5052721;28;20542;-62
2024/04/19 00:16:11;;;;;;;6.38;3.15;;;;;;;10.73;65.58;101609.69;5052487;28;20069;-60
2024/04/19 00:18:37;;;;;;;7.93;3.03;;;;;;;10.66;65.98;101612.81;5019299;28;20062;-62
2024/04/19 00:21:03;;;;;;;9.10;3.58;;;;;;;10.96;66.09;101617.97;5035610;28;20056;-60
2024/04/19 00:23:30;;;;;;;12.18;3.30;;;;;;;10.87;65.86;101614.22;5035749;28;20064;-60
2024/04/19 00:25:57;;;;;;;10.38;3.05;;;;;;;10.73;66.52;101615.22;5051565;28;20064;-60
2024/04/19 00:28:38;;;;;;;6.17;2.80;;;;;;;10.63;67.75;101609.81;5053991;28;20056;-60
2024/04/19 00:31:05;;;;;;;7.72;3.10;;;;;;;10.42;68.31;101609.22;5052503;28;20067;-60
2024/04/19 00:33:31;;;;;;;7.38;3.17;;;;;;;10.49;68.38;101617.97;5052007;28;20835;-60
2024/04/19 00:35:57;;;;;;;7.40;3.20;;;;;;;10.69;67.79;101605.88;5051909;28;20068;-60
2024/04/19 00:38:24;;;;;;;10.57;3.42;;;;;;;10.58;67.91;101607.13;5035254;28;20060;-60
2024/04/19 00:40:50;;;;;;;7.85;2.97;;;;;;;10.60;68.15;101605.69;5035436;28;20069;-61
2024/04/19 00:43:16;;;;;;;11.95;3.47;;;;;;;10.50;68.48;101611.31;5050166;28;20064;-60
2024/04/19 00:45:43;;;;;;;5.95;3.03;;;;;;;10.58;68.33;101601.59;5060059;28;20064;-60
2024/04/19 00:48:17;;;;;;;7.85;2.83;;;;;;;10.61;67.39;101598.25;5055162;28;20067;-60
2024/04/19 00:51:00;;;;;;;10.80;3.28;;;;;;;10.88;67.21;101596.56;5066625;28;20056;-59
2024/04/19 00:53:29;;;;;;;5.50;2.65;;;;;;;10.77;67.10;101596.97;5050150;28;20091;-59
2024/04/19 00:55:58;;;;;;;8.88;3.03;;;;;;;10.63;67.92;101591.34;5041836;28;20397;-60
2024/04/19 00:58:26;;;;;;;6.57;2.97;;;;;;;10.59;68.23;101594.97;5047305;28;20060;-61
2024/04/19 01:00:53;;;;;;;6.88;3.38;;;;;;;10.50;68.30;101585.69;5071881;28;20060;-60
2024/04/19 01:03:19;;;;;;;7.40;3.05;;;;;;;10.55;68.43;101575.44;5062829;28;20056;-60
2024/04/19 01:05:46;;;;;;;6.82;2.92;;;;;;;10.58;67.99;101577.66;5051330;28;20056;-61
2024/04/19 01:08:33;;;;;;;7.70;2.92;;;;;;;10.67;68.17;101573.09;5052500;28;20052;-60
2024/04/19 01:10:59;;;;;;;7.82;2.70;;;;;;;10.52;67.96;101565.03;5067867;28;20389;-60
2024/04/19 01:13:25;;;;;;;9.00;2.60;;;;;;;10.55;68.02;101569.94;5034998;28;20048;-60
2024/04/19 01:15:52;;;;;;;11.07;2.80;;;;;;;10.70;67.78;101555.19;5051569;28;20060;-60
2024/04/19 01:18:19;;;;;;;5.65;2.50;;;;;;;10.64;67.96;101545.31;5050921;28;20052;-61
2024/04/19 01:20:45;;;;;;;9.30;2.80;;;;;;;10.86;67.23;101548.38;5051054;28;20065;-60
2024/04/19 01:23:13;;;;;;;5.95;2.40;;;;;;;10.71;67.36;101541.09;5050887;28;20052;-60
2024/04/19 01:25:41;;;;;;;5.70;2.60;;;;;;;10.69;68.03;101543.34;5034409;28;20064;-60
2024/04/19 01:28:10;;;;;;;8.77;2.53;;;;;;;10.70;68.24;101533.97;5017715;28;20073;-61
2024/04/19 01:30:39;;;;;;;9.27;2.80;;;;;;;10.69;68.20;101537.00;5051050;28;20060;-60
2024/04/19 01:33:06;;;;;;;6.50;2.55;;;;;;;10.71;67.93;101530.09;5030738;28;20060;-63
2024/04/19 01:35:32;;;;;;;7.03;2.65;;;;;;;10.67;67.76;101526.28;5014442;28;20072;-60
2024/04/19 01:37:58;;;;;;;8.02;2.75;;;;;;;10.65;68.37;101522.19;4994598;28;20064;-62
2024/04/19 01:40:25;;;;;;;7.00;2.55;;;;;;;10.44;68.99;101512.53;4994353;28;20049;-59
2024/04/19 01:42:51;;;;;;;11.73;3.08;;;;;;;10.36;69.39;101511.22;5011001;28;20057;-61
2024/04/19 01:45:17;;;;;;;10.45;3.00;;;;;;;10.60;69.68;101509.28;5016854;28;20622;-60
2024/04/19 01:47:44;;;;;;;6.95;2.97;;;;;;;10.55;68.95;101509.34;5026268;28;20057;-60
2024/04/19 01:50:10;;;;;;;5.57;2.50;;;;;;;10.32;70.00;101520.38;5042119;28;20056;-59
2024/04/19 01:52:37;;;;;;;7.25;2.50;;;;;;;10.28;70.15;101511.03;5010547;28;20062;-60
2024/04/19 01:55:03;;;;;;;4.75;2.47;;;;;;;10.31;70.29;101505.78;5009824;28;20210;-59
2024/04/19 01:57:30;;;;;;;7.13;2.67;;;;;;;10.09;71.66;101511.78;5011002;28;20068;-59
2024/04/19 01:59:56;;;;;;;7.63;2.80;;;;;;;10.45;71.54;101505.88;5022419;28;20053;-61
2024/04/19 02:02:24;;;;;;;9.27;2.80;;;;;;;10.43;70.05;101503.44;5014278;28;20052;-60
2024/04/19 02:04:50;;;;;;;6.97;2.80;;;;;;;10.53;69.74;101500.53;5026489;28;20516;-60
2024/04/19 02:07:17;;;;;;;7.22;2.42;;;;;;;10.66;69.14;101504.53;5026584;28;20058;-59
2024/04/19 02:09:44;;;;;;;7.13;2.80;;;;;;;10.40;69.97;101500.44;5027071;28;20053;-60
2024/04/19 02:12:10;;;;;;;4.70;2.15;;;;;;;10.44;70.20;101488.56;5027225;28;20049;-61
2024/04/19 02:14:37;;;;;;;9.90;2.70;;;;;;;10.62;70.24;101485.00;5026891;28;20065;-60
2024/04/19 02:17:03;;;;;;;11.32;2.78;;;;;;;10.52;70.79;101481.56;5026855;28;20065;-61
2024/04/19 02:19:35;;;;;;;7.50;2.40;;;;;;;10.55;70.15;101481.78;5026824;28;20061;-60
2024/04/19 02:22:03;;;;;;;11.02;2.80;;;;;;;10.81;69.91;101474.84;5029317;28;20061;-61
2024/04/19 02:24:30;;;;;;;7.10;2.55;;;;;;;10.70;69.60;101470.59;5015407;28;20575;-61
2024/04/19 02:31:16;;;;;;;6.90;2.47;;;;;;;10.44;71.02;101460.19;5430903;26;20008;-60
2024/04/19 02:33:47;;;;;;;5.15;2.20;;;;;;;10.52;70.52;101454.84;5388069;26;20014;-60
2024/04/19 02:36:14;;;;;;;5.90;2.50;;;;;;;10.67;70.68;101448.31;5390720;26;20899;-61
2024/04/19 02:38:42;;;;;;;8.02;2.35;;;;;;;10.70;70.33;101453.25;5411814;26;20002;-61
2024/04/19 02:41:09;;;;;;;8.60;2.72;;;;;;;10.72;70.00;101442.75;5425221;26;20003;-60
2024/04/19 02:43:36;;;;;;;7.55;2.30;;;;;;;10.86;70.25;101446.41;5423694;26;20010;-61
2024/04/19 02:46:04;;;;;;;8.52;2.40;;;;;;;10.75;69.92;101444.91;5424333;26;19999;-60
2024/04/19 02:48:33;;;;;;;9.05;2.38;;;;;;;10.74;70.07;101437.75;5423388;26;19999;-60
2024/04/19 02:51:04;;;;;;;10.25;2.50;;;;;;;10.65;71.38;101442.28;5424587;26;20004;-61
2024/04/19 02:53:32;;;;;;;9.23;2.67;;;;;;;10.48;71.54;101434.50;5426207;26;20442;-61
2024/04/19 02:56:00;;;;;;;6.25;2.22;;;;;;;10.57;71.68;101432.75;5426317;26;19999;-61
2024/04/19 02:58:28;;;;;;;10.38;2.50;;;;;;;10.50;71.80;101429.53;5424542;26;19999;-60
2024/04/19 03:00:55;;;;;;;8.02;2.88;;;;;;;10.52;72.84;101430.06;5425946;26;20125;-61
2024/04/19 03:03:23;;;;;;;8.73;2.70;;;;;;;10.58;72.18;101428.06;5426280;26;20005;-61
2024/04/19 03:05:54;;;;;;;9.90;2.65;;;;;;;10.70;72.69;101423.75;5425730;26;20372;-59
2024/04/19 03:08:22;;;;;;;11.00;2.72;;;;;;;10.79;71.08;101429.41;5365023;26;20005;-60
2024/04/19 03:10:49;;;;;;;9.63;2.58;;;;;;;10.60;71.92;101418.38;5394579;26;20444;-60
2024/04/19 03:13:17;;;;;;;9.68;2.63;;;;;;;10.59;72.70;101416.75;5426273;26;19995;-61
2024/04/19 03:15:45;;;;;;;7.28;2.88;;;;;;;10.56;73.00;101411.00;5425743;26;20819;-60
2024/04/19 03:18:31;;;;;;;7.03;2.55;;;;;;;10.68;72.92;101409.44;5400899;26;20004;-61
2024/04/19 03:20:59;;;;;;;11.32;2.75;;;;;;;10.72;73.20;101412.44;5424452;26;20139;-61
2024/04/19 03:23:27;;;;;;;9.15;2.60;;;;;;;10.73;72.67;101405.78;5409523;26;20012;-61
2024/04/19 03:25:59;;;;;;;9.45;3.22;;;;;;;10.53;73.77;101411.59;5416504;26;19999;-59
2024/04/19 03:28:26;;;;;;;6.28;2.42;;;;;;;10.52;73.58;101410.78;5461104;26;20364;-61
2024/04/19 03:30:54;;;;;;;8.73;3.25;;;;;;;10.45;73.70;101402.06;5461117;26;20449;-62
2024/04/19 03:33:21;;;;;;;6.82;2.65;;;;;;;10.33;74.17;101411.84;5388677;26;20004;-61
2024/04/19 03:35:49;;;;;;;9.50;3.13;;;;;;;10.26;74.24;101403.97;5416513;26;19996;-60
2024/04/19 03:38:17;;;;;;;7.68;2.50;;;;;;;10.28;75.49;101412.75;5416544;26;20004;-60
2024/04/19 03:40:55;;;;;;;6.63;3.05;;;;;;;10.31;74.23;101403.88;5410563;26;20009;-60
2024/04/19 03:43:23;;;;;;;7.70;2.83;;;;;;;10.08;74.97;101405.56;5410100;26;20004;-61
2024/04/19 03:45:52;;;;;;;8.80;3.03;;;;;;;10.18;75.06;101383.41;5407860;26;20004;-61
2024/04/19 03:48:19;;;;;;;9.00;2.95;;;;;;;10.50;74.25;101376.38;5408050;26;19995;-60
2024/04/19 03:50:47;;;;;;;8.50;2.75;;;;;;;10.70;73.07;101373.34;5409282;26;20324;-61
2024/04/19 03:53:17;;;;;;;7.22;2.58;;;;;;;10.62;73.02;101371.22;5410372;26;20003;-61
2024/04/19 03:55:45;;;;;;;11.02;2.78;;;;;;;10.39;72.17;101372.94;5389803;26;20008;-60
2024/04/19 03:58:13;;;;;;;7.93;2.58;;;;;;;10.67;72.64;101374.72;5387729;26;20010;-60
2024/04/19 04:00:40;;;;;;;6.00;2.65;;;;;;;10.51;71.46;101370.59;5408083;26;19996;-59
2024/04/19 04:03:08;;;;;;;8.13;2.70;;;;;;;10.55;69.14;101377.13;5418829;26;20013;-61
2024/04/19 04:05:38;;;;;;;7.03;2.63;;;;;;;10.28;70.43;101368.69;5445260;26;20009;-60
2024/04/19 04:08:06;;;;;;;8.20;2.70;;;;;;;10.34;72.61;101364.75;5445503;26;19999;-60
2024/04/19 04:10:35;;;;;;;10.93;2.75;;;;;;;10.27;70.38;101374.50;5423297;26;19996;-61
2024/04/19 04:13:03;;;;;;;12.10;3.10;;;;;;;10.09;70.95;101367.84;5366136;26;20019;-60
2024/04/19 04:15:31;;;;;;;7.78;2.72;;;;;;;10.40;71.65;101360.81;5374506;26;20004;-60
2024/04/19 04:18:00;;;;;;;11.00;2.70;;;;;;;10.38;71.45;101363.03;5376153;26;20011;-60
2024/04/19 04:20:28;;;;;;;11.90;2.83;;;;;;;10.27;70.02;101357.97;5382592;26;20886;-60
2024/04/19 04:22:55;;;;;;;6.15;3.08;;;;;;;10.18;70.48;101360.56;5374520;26;20463;-61
2024/04/19 04:25:23;;;;;;;8.05;2.63;;;;;;;10.04;70.86;101359.63;5418679;26;20009;-59
2024/04/19 04:27:50;;;;;;;8.88;2.50;;;;;;;10.05;71.39;101362.06;5422606;26;20013;-60
2024/04/19 04:30:17;;;;;;;7.15;2.33;;;;;;;10.08;72.26;101361.50;5411254;26;19999;-60
2024/04/19 04:32:45;;;;;;;7.57;2.47;;;;;;;10.08;70.88;101364.25;5409557;26;20003;-61
2024/04/19 04:35:12;;;;;;;4.55;2.17;;;;;;;10.41;71.94;101372.66;5409496;26;19999;-60
2024/04/19 04:37:40;;;;;;;8.02;2.45;;;;;;;10.12;71.59;101362.56;5410007;26;20014;-60
2024/04/19 04:40:07;;;;;;;9.52;2.92;;;;;;;10.22;72.64;101364.34;5413170;26;20003;-64
2024/04/19 04:42:35;;;;;;;8.40;2.47;;;;;;;10.19;71.20;101357.53;5445784;26;20357;-61
2024/04/19 04:45:06;;;;;;;6.50;2.70;;;;;;;10.01;73.12;101357.44;5445590;26;20005;-61
2024/04/19 04:47:33;;;;;;;7.53;3.15;;;;;;;9.90;73.32;101353.19;5445571;26;19995;-61
2024/04/19 04:50:01;;;;;;;7.68;2.60;;;;;;;10.13;73.99;101355.94;5407682;26;20004;-59
2024/04/19 04:52:28;;;;;;;10.90;3.15;;;;;;;9.97;73.51;101353.66;5409373;26;20006;-61
2024/04/19 04:54:55;;;;;;;10.00;3.00;;;;;;;10.05;73.75;101355.75;5406536;26;20014;-60
2024/04/19 04:57:23;;;;;;;7.63;2.80;;;;;;;10.12;73.64;101354.31;5409366;26;20004;-61
2024/04/19 04:59:50;;;;;;;10.57;2.83;;;;;;;10.07;74.87;101348.00;5409609;26;20003;-60
2024/04/19 05:02:18;;;;;;;8.32;3.20;;;;;;;9.94;74.47;101348.72;5407346;26;19999;-60
2024/04/19 05:04:46;;;;;;;9.90;2.97;;;;;;;10.12;74.96;101347.97;5409598;26;20032;-58
2024/04/19 05:07:13;;;;;;;6.57;2.80;;;;;;;10.04;74.65;101348.63;5409595;26;20077;-58
2024/04/19 05:09:41;;;;;;;9.82;3.00;;;;;;;9.97;74.89;101348.94;5406504;26;20010;-59
2024/04/19 05:12:08;;;;;;;9.00;2.90;;;;;;;10.12;75.33;101345.22;5409563;26;19996;-61
2024/04/19 05:14:36;;;;;;;7.20;3.05;;;;;;;10.15;75.14;101347.38;5408682;26;20013;-59
2024/04/19 05:17:03;;;;;;;7.68;2.90;;;;;;;10.18;74.46;101338.56;5392491;26;20011;-60
2024/04/19 05:19:31;;;;;;;9.88;3.25;;;;;;;10.03;74.10;101346.97;5383267;26;20004;-57
2024/04/19 05:21:58;;;;;;;7.35;2.80;;;;;;;10.01;74.58;101338.16;5411197;26;20014;-59
2024/04/19 05:24:25;;;;;;;6.82;2.50;;;;;;;9.91;75.28;101339.13;5409816;26;20006;-60
2024/04/19 05:26:56;;;;;;;9.32;2.95;;;;;;;10.14;75.14;101340.25;5420998;26;20054;-59
2024/04/19 05:29:25;;;;;;;11.02;3.08;;;;;;;10.21;74.44;101337.97;5416544;26;20018;-61
2024/04/19 05:31:53;;;;;;;5.57;2.65;;;;;;;10.02;74.36;101334.31;5437845;26;20007;-60
2024/04/19 05:34:21;;;;;;;9.85;3.05;;;;;;;9.86;75.11;101335.63;5378834;26;20848;-59
2024/04/19 05:36:48;;;;;;;11.50;3.05;;;;;;;10.05;74.76;101334.56;5430889;26;19994;-63
2024/04/19 05:39:16;;;;;;;8.25;2.92;;;;;;;9.92;75.38;101337.22;5419525;26;20001;-61
2024/04/19 05:41:43;;;;;;;8.98;3.22;;;;;;;9.87;75.82;101340.00;5412890;26;20002;-60
2024/04/19 05:44:18;;;;;;;9.05;3.42;;;;;;;9.75;76.05;101334.91;5443404;26;20009;-59
2024/04/19 05:46:46;;;;;;;10.73;2.90;;;;;;;9.86;75.83;101335.63;5444859;26;20870;-58
2024/04/19 05:49:14;;;;;;;10.02;3.10;;;;;;;9.77;76.63;101327.19;5442520;26;19998;-58
2024/04/19 05:51:42;;;;;;;10.35;3.00;;;;;;;9.63;76.25;101331.75;5383006;26;20013;-60
2024/04/19 05:54:09;;;;;;;9.55;2.70;;;;;;;9.87;76.79;101326.25;5411255;26;20017;-61
2024/04/19 05:56:36;;;;;;;8.07;2.55;;;;;;;9.77;76.18;101320.88;5442942;26;19994;-60
2024/04/19 05:59:04;;;;;;;12.10;2.92;;;;;;;10.22;75.74;101323.06;5444908;26;20030;-62
2024/04/19 06:01:31;;;;;;;7.32;2.78;;;;;;;10.15;75.16;101319.84;5436821;26;20003;-60
2024/04/19 06:03:59;;;;;;;14.90;3.00;;;;;;;10.17;75.98;101307.44;5442256;26;20716;-60
2024/04/19 06:06:27;;;;;;;8.95;2.60;;;;;;;10.20;74.08;101320.59;5444053;26;20731;-60
2024/04/19 06:08:54;;;;;;;9.43;3.10;;;;;;;9.70;75.62;101318.47;5426611;26;20004;-60
2024/04/19 06:11:21;;;;;;;10.98;2.83;;;;;;;10.02;77.05;101334.31;5377616;26;20161;-59
2024/04/19 06:13:52;;;;;;;10.93;2.58;;;;;;;10.02;75.69;101321.34;5375037;26;20565;-59
2024/04/19 06:16:19;;;;;;;12.52;2.90;;;;;;;10.14;76.20;101320.97;5414180;26;20025;-59
2024/04/19 06:18:47;;;;;;;8.50;2.90;;;;;;;9.97;75.02;101337.13;5441813;26;20451;-59
2024/04/19 06:21:14;;;;;;;8.25;2.35;;;;;;;10.10;75.70;101326.25;5421589;26;20003;-61
2024/04/19 06:23:42;;;;;;;9.68;3.30;;;;;;;10.32;74.56;101325.66;5407613;26;20005;-59
2024/04/19 06:26:09;;;;;;;9.23;2.53;;;;;;;10.13;75.38;101331.16;5467758;26;20005;-60
2024/04/19 06:28:40;;;;;;;8.70;2.58;;;;;;;10.08;75.34;101330.38;5442209;26;19994;-59
2024/04/19 06:31:09;;;;;;;10.38;2.60;;;;;;;10.24;74.96;101337.34;5440974;26;19998;-61
2024/04/19 06:33:38;;;;;;;13.90;2.80;;;;;;;10.26;75.66;101331.56;5465596;26;20005;-62
2024/04/19 06:36:07;;;;;;;11.18;2.85;;;;;;;10.34;76.36;101320.69;5480980;26;20008;-61
2024/04/19 06:38:35;;;;;;;10.10;2.60;;;;;;;10.40;74.73;101326.94;5452237;26;19999;-60
2024/04/19 06:41:05;;;;;;;8.60;2.60;;;;;;;10.27;74.96;101322.19;5441991;26;20009;-61
2024/04/19 06:43:32;;;;;;;8.68;2.67;;;;;;;10.41;76.43;101315.63;5440962;26;20915;-61
2024/04/19 06:46:00;;;;;;;8.05;2.15;;;;;;;10.48;76.36;101321.59;5443200;26;20062;-61
2024/04/19 06:48:27;;;;;;;10.32;2.70;;;;;;;10.44;75.88;101326.06;5443279;26;20003;-61
2024/04/19 06:50:54;;;;;;;6.80;2.50;;;;;;;10.25;75.97;101322.50;5443344;26;20005;-63
2024/04/19 06:53:22;;;;;;;9.30;2.60;;;;;;;10.09;76.91;101319.09;5442822;26;20009;-61
2024/04/19 06:55:52;;;;;;;11.52;3.30;;;;;;;9.78;78.36;101323.31;5440438;26;20009;-60
2024/04/19 06:58:20;;;;;;;16.52;3.20;;;;;;;9.82;79.07;101323.56;5443424;26;19995;-61
2024/04/19 07:00:48;;;;;;;104.28;9.38;;;;;;;9.91;79.37;101328.13;5410982;26;20009;-61
2024/04/19 07:03:35;;;;;;;9.73;2.67;;;;;;;10.13;77.90;101333.91;5416253;26;20003;-61
2024/04/19 07:06:13;;;;;;;14.18;2.67;;;;;;;10.26;78.53;101320.53;5442591;26;19995;-61
2024/04/19 07:08:54;;;;;;;9.10;2.40;;;;;;;10.06;77.55;101310.56;5395205;26;20021;-61
2024/04/19 07:11:21;;;;;;;67.25;6.90;;;;;;;10.40;79.17;101308.50;5432561;26;20017;-62
2024/04/19 07:13:48;;;;;;;9.25;2.70;;;;;;;10.36;78.98;101312.13;5420489;26;20003;-61
2024/04/19 07:16:16;;;;;;;36.47;5.65;;;;;;;10.31;78.82;101309.44;5418943;26;20003;-60
2024/04/19 07:18:46;;;;;;;13.50;2.80;;;;;;;10.04;79.80;101318.34;5408736;26;20034;-60
2024/04/19 07:21:14;;;;;;;15.77;2.95;;;;;;;10.17;79.72;101303.88;5425954;26;20017;-60
2024/04/19 07:23:41;;;;;;;17.23;3.97;;;;;;;10.54;78.74;101309.38;5437063;26;20011;-62
2024/04/19 07:26:09;;;;;;;10.45;2.75;;;;;;;10.16;78.99;101310.50;5448395;26;20571;-62
2024/04/19 07:28:37;;;;;;;16.42;3.13;;;;;;;10.50;79.70;101308.34;5438825;26;20002;-62
2024/04/19 07:31:04;;;;;;;12.85;2.90;;;;;;;10.29;79.12;101307.00;5432198;26;20003;-62
2024/04/19 07:33:31;;;;;;;13.48;2.80;;;;;;;10.23;79.59;101310.13;5460386;26;20006;-61
2024/04/19 07:35:59;;;;;;;21.30;3.28;;;;;;;10.60;80.07;101308.19;5439022;26;20010;-61
2024/04/19 07:38:26;;;;;;;16.52;3.45;;;;;;;10.76;79.18;101303.25;5459559;26;21029;-62
2024/04/19 07:40:54;;;;;;;11.32;3.05;;;;;;;10.82;78.23;101294.63;5429445;26;20025;-61
2024/04/19 07:43:22;;;;;;;9.40;2.63;;;;;;;10.54;77.63;101308.56;5396684;26;19999;-61
2024/04/19 07:45:50;;;;;;;9.07;2.70;;;;;;;10.43;79.77;101312.56;5463333;26;20003;-61
2024/04/19 07:48:17;;;;;;;10.63;2.58;;;;;;;10.50;79.84;101308.34;5428784;26;20022;-60
2024/04/19 07:50:45;;;;;;;10.45;2.92;;;;;;;10.45;80.51;101308.41;5463192;26;20003;-62
2024/04/19 07:53:18;;;;;;;13.00;2.60;;;;;;;10.49;81.15;101306.72;5467377;26;20002;-61
2024/04/19 07:55:45;;;;;;;8.18;2.70;;;;;;;10.76;79.60;101289.47;5457191;26;20016;-60
2024/04/19 07:58:13;;;;;;;10.75;3.13;;;;;;;10.93;79.65;101290.53;5426738;26;20002;-61
2024/04/19 08:00:41;;;;;;;11.20;3.05;;;;;;;10.88;77.29;101292.59;5430234;26;20003;-61
2024/04/19 08:03:08;;;;;;;14.02;3.38;;;;;;;10.93;79.22;101285.03;5451380;26;20024;-63
2024/04/19 08:05:36;;;;;;;13.98;3.25;;;;;;;10.99;78.09;101281.09;5467445;26;20014;-63
2024/04/19 08:08:04;;;;;;;11.05;2.90;;;;;;;11.15;77.91;101276.94;5403763;26;20024;-61
2024/04/19 08:10:31;;;;;;;13.00;2.95;;;;;;;10.83;79.03;101276.94;5425320;26;20002;-61
2024/04/19 08:13:01;;;;;;;8.70;2.75;;;;;;;10.91;79.85;101276.25;5454116;26;19998;-60
2024/04/19 08:15:29;;;;;;;12.73;3.08;;;;;;;11.15;79.43;101273.34;5447487;26;20013;-62
2024/04/19 08:17:56;;;;;;;12.30;3.05;;;;;;;11.17;77.70;101276.63;5454495;26;20821;-62
2024/04/19 08:20:24;;;;;;;8.75;2.97;;;;;;;10.87;77.98;101275.22;5419912;26;20852;-64
2024/04/19 08:22:51;;;;;;;12.48;2.92;;;;;;;10.93;80.40;101275.97;5413518;26;20028;-61
2024/04/19 08:25:19;;;;;;;9.43;2.83;;;;;;;11.13;80.07;101272.84;5455143;26;20002;-63
2024/04/19 08:27:46;;;;;;;14.90;2.88;;;;;;;11.00;79.77;101274.44;5469873;26;20002;-63
2024/04/19 08:30:14;;;;;;;10.40;3.05;;;;;;;10.89;80.26;101272.16;5455716;26;20005;-62
2024/04/19 08:32:41;;;;;;;9.95;3.03;;;;;;;11.18;80.88;101258.94;5459753;26;20472;-63
2024/04/19 08:35:09;;;;;;;14.27;2.78;;;;;;;11.16;80.39;101263.94;5419088;26;20413;-62
2024/04/19 08:37:36;;;;;;;15.02;3.05;;;;;;;11.07;79.17;101263.03;5427695;26;20002;-61
2024/04/19 08:40:04;;;;;;;12.27;2.92;;;;;;;11.00;79.45;101263.41;5439117;26;19998;-61
2024/04/19 08:42:32;;;;;;;14.27;3.10;;;;;;;11.10;80.18;101260.50;5463890;26;20008;-62
2024/04/19 08:45:04;;;;;;;12.60;3.42;;;;;;;10.83;81.02;101262.34;5460800;26;20007;-62
2024/04/19 08:47:34;;;;;;;49.40;7.28;;;;;;;10.88;80.93;101271.34;5418345;26;20013;-63
2024/04/19 08:50:03;;;;;;;7.97;2.67;;;;;;;10.69;82.71;101251.28;5397086;26;20002;-63
2024/04/19 08:52:31;;;;;;;31.88;4.93;;;;;;;10.93;82.21;101256.69;5444918;26;20747;-61
2024/04/19 08:55:19;;;;;;;15.40;3.25;;;;;;;10.82;81.79;101249.69;5393806;26;19995;-62
2024/04/19 08:57:46;;;;;;;16.95;3.28;;;;;;;10.88;82.79;101257.56;5416163;26;20013;-61
2024/04/19 09:00:14;;;;;;;11.93;2.80;;;;;;;10.76;82.71;101259.16;5384425;26;20015;-62
2024/04/19 09:02:44;;;;;;;9.80;3.08;;;;;;;10.81;82.83;101250.81;5412980;26;20247;-62
2024/04/19 09:05:12;;;;;;;11.80;2.70;;;;;;;10.65;84.18;101258.50;5458111;26;20002;-63
2024/04/19 09:07:40;;;;;;;17.70;2.78;;;;;;;10.88;84.46;101248.50;5451143;26;20002;-61
2024/04/19 09:10:10;;;;;;;16.25;3.30;;;;;;;11.02;83.43;101252.91;5456736;26;20002;-61
2024/04/19 09:12:37;;;;;;;;;;;;;;;10.95;83.38;101251.66;5409506;26;21040;-61
2024/04/19 09:15:05;;;;;;;8.10;2.25;;;;;;;11.00;83.01;101246.88;5421631;26;19930;-61
2024/04/19 09:17:33;;;;;;;9.73;3.03;;;;;;;11.42;82.25;101258.78;5432213;26;19995;-63
2024/04/19 09:20:00;;;;;;;6.60;2.28;;;;;;;11.22;81.89;101251.72;5416329;26;20007;-62
2024/04/19 09:22:28;;;;;;;12.95;3.00;;;;;;;11.32;81.99;101255.09;5430671;26;19998;-61
2024/04/19 09:24:55;;;;;;;12.73;4.03;;;;;;;11.32;82.29;101251.50;5420964;26;20002;-62
2024/04/19 09:27:23;;;;;;;14.27;2.80;;;;;;;11.35;83.18;101245.38;5459230;26;19999;-61
2024/04/19 09:29:51;;;;;;;10.13;3.05;;;;;;;11.31;83.39;101249.88;5413517;26;20755;-61
2024/04/19 09:32:22;;;;;;;10.82;2.67;;;;;;;11.18;82.10;101251.50;5450226;26;20009;-61
2024/04/19 09:34:50;;;;;;;8.85;2.40;;;;;;;11.44;82.77;101248.28;5443708;26;20003;-61
2024/04/19 09:37:18;;;;;;;12.95;3.13;;;;;;;11.06;83.39;101251.19;5392896;26;20002;-61
2024/04/19 09:39:48;;;;;;;12.75;3.03;;;;;;;11.15;83.43;101243.84;5450277;26;20673;-61
2024/04/19 09:42:16;;;;;;;13.00;2.60;;;;;;;11.19;82.82;101247.63;5452246;26;20020;-62
2024/04/19 09:44:47;;;;;;;14.27;3.65;;;;;;;11.15;84.35;101254.06;5398614;26;20540;-61
2024/04/19 09:47:15;;;;;;;12.45;3.17;;;;;;;11.20;84.44;101246.50;5419293;26;20024;-60
2024/04/19 09:49:45;;;;;;;12.50;3.03;;;;;;;11.39;82.91;101238.13;5424705;26;20310;-60
2024/04/19 09:52:20;;;;;;;9.23;2.90;;;;;;;11.14;82.95;101241.41;5446000;26;20013;-61
2024/04/19 09:54:57;;;;;;;19.30;3.33;;;;;;;11.01;84.00;101237.50;5394075;26;20005;-62
2024/04/19 09:57:26;;;;;;;10.30;2.83;;;;;;;11.17;84.24;101240.78;5426075;26;20009;-61
2024/04/19 09:59:56;;;;;;;11.10;3.10;;;;;;;11.31;83.87;101244.38;5404298;26;20002;-60
2024/04/19 10:02:24;;;;;;;16.15;3.83;;;;;;;11.45;84.33;101234.16;5414562;26;20002;-62
2024/04/19 10:05:02;;;;;;;13.88;2.90;;;;;;;11.68;82.41;101237.88;5386006;26;20006;-61
2024/04/19 10:07:31;;;;;;;14.52;2.92;;;;;;;11.29;83.55;101235.59;5453462;26;20030;-61
2024/04/19 10:09:59;;;;;;;10.07;3.05;;;;;;;11.61;84.43;101223.63;5438472;26;20020;-62
2024/04/19 10:12:27;;;;;;;13.15;3.17;;;;;;;11.72;81.38;101228.66;5440140;26;20704;-63
2024/04/19 10:14:54;;;;;;;16.52;6.95;;;;;;;11.67;82.35;101214.97;5442786;26;20010;-61
2024/04/19 10:17:22;;;;;;;23.73;10.00;;;;;;;11.71;82.28;101210.47;5431501;26;20014;-61
2024/04/19 10:19:50;;;;;;;12.27;3.85;;;;;;;11.62;82.36;101208.69;5415036;26;20014;-61
2024/04/19 10:22:24;;;;;;;16.63;4.25;;;;;;;12.06;81.05;101203.34;5436159;26;20363;-62
2024/04/19 10:24:59;;;;;;;12.90;3.67;;;;;;;11.73;81.13;101199.94;5397265;26;20009;-61
2024/04/19 10:27:29;;;;;;;12.35;2.88;;;;;;;11.80;81.39;101205.84;5442455;26;20110;-61
2024/04/19 10:30:08;;;;;;;10.85;2.60;;;;;;;11.80;80.44;101191.25;5407169;26;20037;-61
2024/04/19 10:32:52;;;;;;;14.98;3.58;;;;;;;11.89;81.00;101201.22;5329137;26;20000;-61
2024/04/19 10:35:21;;;;;;;11.57;3.00;;;;;;;11.96;80.40;101189.78;5405393;26;20006;-61
2024/04/19 10:37:48;;;;;;;14.70;4.22;;;;;;;12.26;79.97;101186.28;5376381;26;19999;-62
2024/04/19 10:40:16;;;;;;;10.82;3.00;;;;;;;12.18;79.27;101190.63;5441247;26;19994;-62
2024/04/19 10:42:44;;;;;;;17.17;5.68;;;;;;;12.32;79.52;101187.78;5450247;26;20835;-62
2024/04/19 10:45:15;;;;;;;17.20;6.20;;;;;;;12.55;78.02;101197.72;5379682;26;20000;-63
2024/04/19 10:47:43;;;;;;;11.90;4.30;;;;;;;12.37;77.98;101190.44;5418611;26;19999;-64
2024/04/19 10:50:11;;;;;;;11.05;4.38;;;;;;;12.08;79.91;101192.81;5446235;26;20600;-63
2024/04/19 10:52:38;;;;;;;9.30;2.97;;;;;;;11.70;80.51;101208.81;5386783;26;20931;-62
2024/04/19 10:55:06;;;;;;;14.70;3.65;;;;;;;11.82;80.89;101187.03;5385161;26;20017;-63
2024/04/19 10:57:33;;;;;;;13.98;3.20;;;;;;;11.88;81.57;101190.50;5378931;26;19999;-62
2024/04/19 11:00:01;;;;;;;18.73;3.38;;;;;;;11.74;81.48;101184.19;5416692;26;19998;-61
2024/04/19 11:02:29;;;;;;;28.60;3.78;;;;;;;12.03;82.05;101199.25;5403106;26;20501;-61
2024/04/19 11:04:57;;;;;;;12.52;3.20;;;;;;;11.91;80.70;101187.94;5439541;26;19994;-61
2024/04/19 11:07:24;;;;;;;14.65;3.45;;;;;;;11.81;82.81;101179.88;5449514;26;20003;-62
2024/04/19 11:09:52;;;;;;;20.50;4.53;;;;;;;12.28;81.54;101162.75;5412032;26;20002;-62
2024/04/19 11:12:19;;;;;;;9.50;2.80;;;;;;;11.99;81.31;101164.28;5412224;26;19999;-61
2024/04/19 11:14:47;;;;;;;10.18;2.83;;;;;;;12.29;81.02;101163.56;5450839;26;19995;-61
2024/04/19 11:17:15;;;;;;;12.82;4.10;;;;;;;12.46;79.71;101160.94;5475938;26;20797;-61
2024/04/19 11:19:42;;;;;;;14.48;3.95;;;;;;;12.21;79.95;101161.53;5417918;26;19999;-61
2024/04/19 11:22:10;;;;;;;11.80;3.83;;;;;;;12.05;80.95;101152.00;5466103;26;20010;-61
2024/04/19 11:24:39;;;;;;;10.10;3.08;;;;;;;12.33;80.71;101137.75;5368462;26;20003;-62
2024/04/19 11:27:07;;;;;;;11.80;3.20;;;;;;;12.18;80.68;101145.59;5414268;26;20013;-61
2024/04/19 11:29:35;;;;;;;10.15;2.63;;;;;;;11.95;81.25;101155.00;5416026;26;20228;-62
2024/04/19 11:32:05;;;;;;;13.43;3.20;;;;;;;11.87;82.08;101156.53;5457895;26;19995;-62